sensor_id;sensor_type;location;lat;lon;timestamp;P1;durP1;ratioP1;P2;durP2;ratioP2
4373;SDS011;2201;51.100;6.814;2023-05-16T00:01:57;1.50;;;1.00;;
4373;SDS011;2201;51.100;6.814;2023-05-16T00:04:23;1.50;;;1.00;;
4373;SDS011;2201;51.100;6.814;2023-05-16T00:06:51;1.50;;;1.10;;
4373;SDS011;2201;51.100;6.814;2023-05-16T00:09:18;1.50;;;1.10;;
4373;SDS011;2201;51.100;6.814;2023-05-16T00:11:45;1.50;;;1.00;;
4373;SDS011;2201;51.100;6.814;2023-05-16T00:14:12;1.50;;;1.00;;
4373;SDS011;2201;51.100;6.814;2023-05-16T00:16:41;1.50;;;1.00;;
4373;SDS011;2201;51.100;6.814;2023-05-16T00:19:07;1.50;;;1.00;;
4373;SDS011;2201;51.100;6.814;2023-05-16T00:21:35;1.50;;;1.00;;
4373;SDS011;2201;51.100;6.814;2023-05-16T00:24:02;1.50;;;1.10;;
4373;SDS011;2201;51.100;6.814;2023-05-16T00:26:30;1.50;;;1.00;;
4373;SDS011;2201;51.100;6.814;2023-05-16T00:28:56;1.50;;;1.10;;
4373;SDS011;2201;51.100;6.814;2023-05-16T00:31:23;1.50;;;1.10;;
4373;SDS011;2201;51.100;6.814;2023-05-16T00:33:51;1.50;;;1.10;;
4373;SDS011;2201;51.100;6.814;2023-05-16T00:36:18;1.50;;;1.00;;
4373;SDS011;2201;51.100;6.814;2023-05-16T00:38:45;1.50;;;1.00;;
4373;SDS011;2201;51.100;6.814;2023-05-16T00:41:12;1.50;;;1.10;;
4373;SDS011;2201;51.100;6.814;2023-05-16T00:43:39;1.50;;;1.00;;
4373;SDS011;2201;51.100;6.814;2023-05-16T00:46:06;1.50;;;1.03;;
4373;SDS011;2201;51.100;6.814;2023-05-16T00:48:33;1.50;;;1.00;;
4373;SDS011;2201;51.100;6.814;2023-05-16T00:51:01;1.50;;;1.00;;
4373;SDS011;2201;51.100;6.814;2023-05-16T00:53:28;1.50;;;1.03;;
4373;SDS011;2201;51.100;6.814;2023-05-16T00:55:55;1.50;;;1.10;;
4373;SDS011;2201;51.100;6.814;2023-05-16T00:58:23;1.50;;;1.00;;
4373;SDS011;2201;51.100;6.814;2023-05-16T01:00:50;1.50;;;1.00;;
4373;SDS011;2201;51.100;6.814;2023-05-16T01:03:17;1.50;;;1.10;;
4373;SDS011;2201;51.100;6.814;2023-05-16T01:05:44;1.50;;;1.13;;
4373;SDS011;2201;51.100;6.814;2023-05-16T01:08:15;1.50;;;1.10;;
4373;SDS011;2201;51.100;6.814;2023-05-16T01:10:48;1.50;;;1.10;;
4373;SDS011;2201;51.100;6.814;2023-05-16T01:13:29;1.50;;;1.10;;
4373;SDS011;2201;51.100;6.814;2023-05-16T01:16:04;1.50;;;1.10;;
4373;SDS011;2201;51.100;6.814;2023-05-16T01:18:36;1.53;;;1.20;;
4373;SDS011;2201;51.100;6.814;2023-05-16T01:21:09;1.50;;;1.07;;
4373;SDS011;2201;51.100;6.814;2023-05-16T01:23:46;1.50;;;1.10;;
4373;SDS011;2201;51.100;6.814;2023-05-16T01:26:19;1.50;;;1.10;;
4373;SDS011;2201;51.100;6.814;2023-05-16T01:28:47;1.50;;;1.10;;
4373;SDS011;2201;51.100;6.814;2023-05-16T01:31:18;1.50;;;1.10;;
4373;SDS011;2201;51.100;6.814;2023-05-16T01:33:46;1.50;;;1.20;;
4373;SDS011;2201;51.100;6.814;2023-05-16T01:36:16;1.50;;;1.10;;
4373;SDS011;2201;51.100;6.814;2023-05-16T01:38:52;1.50;;;1.00;;
4373;SDS011;2201;51.100;6.814;2023-05-16T01:41:28;1.50;;;1.10;;
4373;SDS011;2201;51.100;6.814;2023-05-16T01:44:06;1.50;;;1.10;;
4373;SDS011;2201;51.100;6.814;2023-05-16T01:46:41;1.50;;;1.10;;
4373;SDS011;2201;51.100;6.814;2023-05-16T01:49:14;1.50;;;1.07;;
4373;SDS011;2201;51.100;6.814;2023-05-16T01:51:49;1.50;;;1.00;;
4373;SDS011;2201;51.100;6.814;2023-05-16T01:54:18;1.50;;;1.10;;
4373;SDS011;2201;51.100;6.814;2023-05-16T01:56:50;1.50;;;1.10;;
4373;SDS011;2201;51.100;6.814;2023-05-16T01:59:18;1.50;;;1.10;;
4373;SDS011;2201;51.100;6.814;2023-05-16T02:01:46;1.50;;;1.10;;
4373;SDS011;2201;51.100;6.814;2023-05-16T02:04:16;1.50;;;1.10;;
4373;SDS011;2201;51.100;6.814;2023-05-16T02:06:43;1.50;;;1.10;;
4373;SDS011;2201;51.100;6.814;2023-05-16T02:09:11;1.50;;;1.10;;
4373;SDS011;2201;51.100;6.814;2023-05-16T02:11:37;1.50;;;1.10;;
4373;SDS011;2201;51.100;6.814;2023-05-16T02:14:06;1.50;;;1.00;;
4373;SDS011;2201;51.100;6.814;2023-05-16T02:16:35;1.50;;;1.10;;
4373;SDS011;2201;51.100;6.814;2023-05-16T02:19:02;1.50;;;1.20;;
4373;SDS011;2201;51.100;6.814;2023-05-16T02:21:29;1.50;;;1.20;;
4373;SDS011;2201;51.100;6.814;2023-05-16T02:23:56;1.50;;;1.10;;
4373;SDS011;2201;51.100;6.814;2023-05-16T02:26:25;1.50;;;1.10;;
4373;SDS011;2201;51.100;6.814;2023-05-16T02:28:52;1.50;;;1.10;;
4373;SDS011;2201;51.100;6.814;2023-05-16T02:31:28;1.50;;;1.00;;
4373;SDS011;2201;51.100;6.814;2023-05-16T02:34:07;1.50;;;1.10;;
4373;SDS011;2201;51.100;6.814;2023-05-16T02:36:39;1.50;;;1.10;;
4373;SDS011;2201;51.100;6.814;2023-05-16T02:39:09;1.50;;;1.10;;
4373;SDS011;2201;51.100;6.814;2023-05-16T02:41:36;1.50;;;1.10;;
4373;SDS011;2201;51.100;6.814;2023-05-16T02:44:03;1.50;;;1.10;;
4373;SDS011;2201;51.100;6.814;2023-05-16T02:46:32;1.50;;;1.10;;
4373;SDS011;2201;51.100;6.814;2023-05-16T02:48:59;1.50;;;1.10;;
4373;SDS011;2201;51.100;6.814;2023-05-16T02:51:27;1.60;;;1.23;;
4373;SDS011;2201;51.100;6.814;2023-05-16T02:53:54;1.50;;;1.20;;
4373;SDS011;2201;51.100;6.814;2023-05-16T02:56:23;1.50;;;1.20;;
4373;SDS011;2201;51.100;6.814;2023-05-16T02:58:50;1.53;;;1.20;;
4373;SDS011;2201;51.100;6.814;2023-05-16T03:01:18;1.53;;;1.20;;
4373;SDS011;2201;51.100;6.814;2023-05-16T03:03:46;1.50;;;1.10;;
4373;SDS011;2201;51.100;6.814;2023-05-16T03:06:13;1.50;;;1.10;;
4373;SDS011;2201;51.100;6.814;2023-05-16T03:08:40;1.53;;;1.13;;
4373;SDS011;2201;51.100;6.814;2023-05-16T03:11:07;1.50;;;1.10;;
4373;SDS011;2201;51.100;6.814;2023-05-16T03:13:33;1.53;;;1.13;;
4373;SDS011;2201;51.100;6.814;2023-05-16T03:16:00;1.50;;;1.07;;
4373;SDS011;2201;51.100;6.814;2023-05-16T03:18:27;1.50;;;1.10;;
4373;SDS011;2201;51.100;6.814;2023-05-16T03:21:08;1.50;;;1.13;;
4373;SDS011;2201;51.100;6.814;2023-05-16T03:23:47;1.50;;;1.10;;
4373;SDS011;2201;51.100;6.814;2023-05-16T03:26:14;1.50;;;1.20;;
4373;SDS011;2201;51.100;6.814;2023-05-16T03:28:41;1.50;;;1.10;;
4373;SDS011;2201;51.100;6.814;2023-05-16T03:31:08;1.50;;;1.10;;
4373;SDS011;2201;51.100;6.814;2023-05-16T03:33:35;1.53;;;1.10;;
4373;SDS011;2201;51.100;6.814;2023-05-16T03:36:02;1.50;;;1.10;;
4373;SDS011;2201;51.100;6.814;2023-05-16T03:38:30;1.57;;;1.13;;
4373;SDS011;2201;51.100;6.814;2023-05-16T03:40:57;1.70;;;1.50;;
4373;SDS011;2201;51.100;6.814;2023-05-16T03:43:25;1.50;;;1.10;;
4373;SDS011;2201;51.100;6.814;2023-05-16T03:45:51;1.50;;;1.10;;
4373;SDS011;2201;51.100;6.814;2023-05-16T03:48:18;1.50;;;1.10;;
4373;SDS011;2201;51.100;6.814;2023-05-16T03:50:45;1.50;;;1.10;;
4373;SDS011;2201;51.100;6.814;2023-05-16T03:53:12;1.50;;;1.10;;
4373;SDS011;2201;51.100;6.814;2023-05-16T03:55:40;1.57;;;1.17;;
4373;SDS011;2201;51.100;6.814;2023-05-16T03:58:08;1.50;;;1.17;;
4373;SDS011;2201;51.100;6.814;2023-05-16T04:00:35;1.50;;;1.20;;
4373;SDS011;2201;51.100;6.814;2023-05-16T04:03:02;1.60;;;1.20;;
4373;SDS011;2201;51.100;6.814;2023-05-16T04:05:44;1.50;;;1.20;;
4373;SDS011;2201;51.100;6.814;2023-05-16T04:08:10;1.50;;;1.10;;
4373;SDS011;2201;51.100;6.814;2023-05-16T04:10:37;1.50;;;1.03;;
4373;SDS011;2201;51.100;6.814;2023-05-16T04:13:06;1.53;;;1.17;;
4373;SDS011;2201;51.100;6.814;2023-05-16T04:15:37;1.50;;;1.10;;
4373;SDS011;2201;51.100;6.814;2023-05-16T04:18:04;1.60;;;1.30;;
4373;SDS011;2201;51.100;6.814;2023-05-16T04:23:57;1.50;;;1.10;;
4373;SDS011;2201;51.100;6.814;2023-05-16T04:26:24;1.50;;;1.10;;
4373;SDS011;2201;51.100;6.814;2023-05-16T04:28:52;1.53;;;1.20;;
4373;SDS011;2201;51.100;6.814;2023-05-16T04:31:20;1.50;;;1.10;;
4373;SDS011;2201;51.100;6.814;2023-05-16T04:33:47;1.50;;;1.10;;
4373;SDS011;2201;51.100;6.814;2023-05-16T04:36:14;1.50;;;1.10;;
4373;SDS011;2201;51.100;6.814;2023-05-16T04:38:41;1.50;;;1.10;;
4373;SDS011;2201;51.100;6.814;2023-05-16T04:41:08;1.53;;;1.20;;
4373;SDS011;2201;51.100;6.814;2023-05-16T04:43:35;1.50;;;1.20;;
4373;SDS011;2201;51.100;6.814;2023-05-16T04:46:03;1.57;;;1.10;;
4373;SDS011;2201;51.100;6.814;2023-05-16T04:48:31;1.50;;;1.10;;
4373;SDS011;2201;51.100;6.814;2023-05-16T04:50:58;1.50;;;1.10;;
4373;SDS011;2201;51.100;6.814;2023-05-16T04:53:25;1.53;;;1.10;;
4373;SDS011;2201;51.100;6.814;2023-05-16T04:55:54;1.50;;;1.20;;
4373;SDS011;2201;51.100;6.814;2023-05-16T04:58:21;1.50;;;1.10;;
4373;SDS011;2201;51.100;6.814;2023-05-16T05:00:51;1.50;;;1.20;;
4373;SDS011;2201;51.100;6.814;2023-05-16T05:03:29;1.50;;;1.10;;
4373;SDS011;2201;51.100;6.814;2023-05-16T05:05:56;1.50;;;1.10;;
4373;SDS011;2201;51.100;6.814;2023-05-16T05:08:29;1.50;;;1.10;;
4373;SDS011;2201;51.100;6.814;2023-05-16T05:10:56;1.50;;;1.20;;
4373;SDS011;2201;51.100;6.814;2023-05-16T05:13:23;1.50;;;1.10;;
4373;SDS011;2201;51.100;6.814;2023-05-16T05:18:36;1.50;;;1.10;;
4373;SDS011;2201;51.100;6.814;2023-05-16T05:24:36;1.50;;;1.10;;
4373;SDS011;2201;51.100;6.814;2023-05-16T05:27:03;1.50;;;1.10;;
4373;SDS011;2201;51.100;6.814;2023-05-16T05:29:30;1.50;;;1.10;;
4373;SDS011;2201;51.100;6.814;2023-05-16T05:31:57;1.50;;;1.10;;
4373;SDS011;2201;51.100;6.814;2023-05-16T05:34:31;1.50;;;1.10;;
4373;SDS011;2201;51.100;6.814;2023-05-16T05:37:15;1.50;;;1.10;;
4373;SDS011;2201;51.100;6.814;2023-05-16T05:39:50;1.53;;;1.20;;
4373;SDS011;2201;51.100;6.814;2023-05-16T05:42:17;1.50;;;1.10;;
4373;SDS011;2201;51.100;6.814;2023-05-16T05:44:44;1.50;;;1.10;;
4373;SDS011;2201;51.100;6.814;2023-05-16T05:47:11;1.50;;;1.10;;
4373;SDS011;2201;51.100;6.814;2023-05-16T05:49:40;1.50;;;1.10;;
4373;SDS011;2201;51.100;6.814;2023-05-16T05:52:06;1.50;;;1.10;;
4373;SDS011;2201;51.100;6.814;2023-05-16T05:54:45;1.50;;;1.00;;
4373;SDS011;2201;51.100;6.814;2023-05-16T05:57:25;1.50;;;1.00;;
4373;SDS011;2201;51.100;6.814;2023-05-16T05:59:54;1.50;;;1.07;;
4373;SDS011;2201;51.100;6.814;2023-05-16T06:02:24;1.50;;;1.07;;
4373;SDS011;2201;51.100;6.814;2023-05-16T06:04:55;1.50;;;1.10;;
4373;SDS011;2201;51.100;6.814;2023-05-16T06:07:22;1.50;;;1.10;;
4373;SDS011;2201;51.100;6.814;2023-05-16T06:09:48;1.50;;;1.00;;
4373;SDS011;2201;51.100;6.814;2023-05-16T06:12:16;1.50;;;1.00;;
4373;SDS011;2201;51.100;6.814;2023-05-16T06:14:42;1.50;;;1.00;;
4373;SDS011;2201;51.100;6.814;2023-05-16T06:17:09;1.80;;;1.10;;
4373;SDS011;2201;51.100;6.814;2023-05-16T06:19:36;1.50;;;1.00;;
4373;SDS011;2201;51.100;6.814;2023-05-16T06:22:09;1.50;;;1.00;;
4373;SDS011;2201;51.100;6.814;2023-05-16T06:25:07;1.50;;;0.93;;
4373;SDS011;2201;51.100;6.814;2023-05-16T06:27:34;1.50;;;1.00;;
4373;SDS011;2201;51.100;6.814;2023-05-16T06:30:01;1.50;;;1.00;;
4373;SDS011;2201;51.100;6.814;2023-05-16T06:32:28;1.50;;;1.00;;
4373;SDS011;2201;51.100;6.814;2023-05-16T06:34:55;1.50;;;1.10;;
4373;SDS011;2201;51.100;6.814;2023-05-16T06:37:24;1.50;;;0.90;;
4373;SDS011;2201;51.100;6.814;2023-05-16T06:39:53;1.50;;;1.10;;
4373;SDS011;2201;51.100;6.814;2023-05-16T06:42:20;1.50;;;1.00;;
4373;SDS011;2201;51.100;6.814;2023-05-16T06:44:53;1.50;;;1.00;;
4373;SDS011;2201;51.100;6.814;2023-05-16T06:47:41;1.50;;;1.00;;
4373;SDS011;2201;51.100;6.814;2023-05-16T06:50:08;1.50;;;1.00;;
4373;SDS011;2201;51.100;6.814;2023-05-16T06:52:37;1.50;;;1.00;;
4373;SDS011;2201;51.100;6.814;2023-05-16T06:55:04;1.50;;;1.00;;
4373;SDS011;2201;51.100;6.814;2023-05-16T06:57:31;1.50;;;1.00;;
4373;SDS011;2201;51.100;6.814;2023-05-16T06:59:58;1.50;;;1.00;;
4373;SDS011;2201;51.100;6.814;2023-05-16T07:02:25;1.50;;;1.00;;
4373;SDS011;2201;51.100;6.814;2023-05-16T07:04:52;1.50;;;1.00;;
4373;SDS011;2201;51.100;6.814;2023-05-16T07:07:19;1.50;;;1.00;;
4373;SDS011;2201;51.100;6.814;2023-05-16T07:09:47;1.50;;;1.00;;
4373;SDS011;2201;51.100;6.814;2023-05-16T07:12:14;1.50;;;1.00;;
4373;SDS011;2201;51.100;6.814;2023-05-16T07:14:41;1.50;;;1.00;;
4373;SDS011;2201;51.100;6.814;2023-05-16T07:17:08;1.50;;;1.00;;
4373;SDS011;2201;51.100;6.814;2023-05-16T07:19:35;1.50;;;1.00;;
4373;SDS011;2201;51.100;6.814;2023-05-16T07:22:07;1.50;;;1.00;;
4373;SDS011;2201;51.100;6.814;2023-05-16T07:24:37;1.50;;;1.00;;
4373;SDS011;2201;51.100;6.814;2023-05-16T07:27:05;1.47;;;1.00;;
4373;SDS011;2201;51.100;6.814;2023-05-16T07:29:35;1.50;;;1.00;;
4373;SDS011;2201;51.100;6.814;2023-05-16T07:32:02;1.50;;;1.00;;
4373;SDS011;2201;51.100;6.814;2023-05-16T07:34:29;1.50;;;1.00;;
4373;SDS011;2201;51.100;6.814;2023-05-16T07:37:07;1.50;;;1.00;;
4373;SDS011;2201;51.100;6.814;2023-05-16T07:39:48;1.50;;;1.00;;
4373;SDS011;2201;51.100;6.814;2023-05-16T07:42:16;1.50;;;1.00;;
4373;SDS011;2201;51.100;6.814;2023-05-16T07:44:43;1.50;;;1.00;;
4373;SDS011;2201;51.100;6.814;2023-05-16T07:47:10;1.50;;;1.00;;
4373;SDS011;2201;51.100;6.814;2023-05-16T07:49:37;1.50;;;0.90;;
4373;SDS011;2201;51.100;6.814;2023-05-16T07:52:04;1.50;;;1.00;;
4373;SDS011;2201;51.100;6.814;2023-05-16T07:54:31;1.50;;;1.00;;
4373;SDS011;2201;51.100;6.814;2023-05-16T07:57:00;1.50;;;0.90;;
4373;SDS011;2201;51.100;6.814;2023-05-16T07:59:28;1.50;;;1.00;;
4373;SDS011;2201;51.100;6.814;2023-05-16T08:01:55;1.50;;;0.90;;
4373;SDS011;2201;51.100;6.814;2023-05-16T08:04:23;1.50;;;1.00;;
4373;SDS011;2201;51.100;6.814;2023-05-16T08:06:49;1.50;;;0.90;;
4373;SDS011;2201;51.100;6.814;2023-05-16T08:15:01;1.50;;;1.10;;
4373;SDS011;2201;51.100;6.814;2023-05-16T08:17:28;1.50;;;0.90;;
4373;SDS011;2201;51.100;6.814;2023-05-16T08:19:55;1.50;;;1.00;;
4373;SDS011;2201;51.100;6.814;2023-05-16T08:22:24;1.50;;;1.00;;
4373;SDS011;2201;51.100;6.814;2023-05-16T08:24:51;1.50;;;0.90;;
4373;SDS011;2201;51.100;6.814;2023-05-16T08:27:21;1.50;;;0.93;;
4373;SDS011;2201;51.100;6.814;2023-05-16T08:29:48;1.50;;;0.97;;
4373;SDS011;2201;51.100;6.814;2023-05-16T08:32:16;1.50;;;1.10;;
4373;SDS011;2201;51.100;6.814;2023-05-16T08:34:43;1.50;;;0.90;;
4373;SDS011;2201;51.100;6.814;2023-05-16T08:37:13;1.50;;;0.90;;
4373;SDS011;2201;51.100;6.814;2023-05-16T08:42:42;1.50;;;0.90;;
4373;SDS011;2201;51.100;6.814;2023-05-16T08:45:09;1.47;;;0.97;;
4373;SDS011;2201;51.100;6.814;2023-05-16T08:47:38;1.47;;;0.90;;
4373;SDS011;2201;51.100;6.814;2023-05-16T08:50:08;1.50;;;1.00;;
4373;SDS011;2201;51.100;6.814;2023-05-16T08:52:36;1.50;;;0.90;;
4373;SDS011;2201;51.100;6.814;2023-05-16T08:55:04;1.50;;;0.90;;
4373;SDS011;2201;51.100;6.814;2023-05-16T08:57:35;1.50;;;0.90;;
4373;SDS011;2201;51.100;6.814;2023-05-16T09:00:05;1.47;;;0.90;;
4373;SDS011;2201;51.100;6.814;2023-05-16T09:02:38;1.50;;;1.00;;
4373;SDS011;2201;51.100;6.814;2023-05-16T09:05:07;1.47;;;0.90;;
4373;SDS011;2201;51.100;6.814;2023-05-16T09:07:36;1.47;;;0.90;;
4373;SDS011;2201;51.100;6.814;2023-05-16T09:10:04;1.47;;;0.90;;
4373;SDS011;2201;51.100;6.814;2023-05-16T09:12:35;1.47;;;0.90;;
4373;SDS011;2201;51.100;6.814;2023-05-16T09:15:10;1.50;;;0.90;;
4373;SDS011;2201;51.100;6.814;2023-05-16T09:17:43;1.47;;;0.90;;
4373;SDS011;2201;51.100;6.814;2023-05-16T09:20:19;1.50;;;0.97;;
4373;SDS011;2201;51.100;6.814;2023-05-16T09:22:53;1.47;;;0.90;;
4373;SDS011;2201;51.100;6.814;2023-05-16T09:25:22;1.50;;;0.90;;
4373;SDS011;2201;51.100;6.814;2023-05-16T09:27:51;1.50;;;0.90;;
4373;SDS011;2201;51.100;6.814;2023-05-16T09:30:20;1.47;;;0.90;;
4373;SDS011;2201;51.100;6.814;2023-05-16T09:32:54;1.50;;;0.90;;
4373;SDS011;2201;51.100;6.814;2023-05-16T09:35:21;1.50;;;0.90;;
4373;SDS011;2201;51.100;6.814;2023-05-16T09:37:57;1.50;;;0.90;;
4373;SDS011;2201;51.100;6.814;2023-05-16T09:40:28;1.47;;;0.90;;
4373;SDS011;2201;51.100;6.814;2023-05-16T09:46:11;1.47;;;0.90;;
4373;SDS011;2201;51.100;6.814;2023-05-16T09:48:41;1.47;;;0.90;;
4373;SDS011;2201;51.100;6.814;2023-05-16T09:54:04;1.50;;;0.90;;
4373;SDS011;2201;51.100;6.814;2023-05-16T09:56:47;1.47;;;0.90;;
4373;SDS011;2201;51.100;6.814;2023-05-16T09:59:30;1.43;;;0.90;;
4373;SDS011;2201;51.100;6.814;2023-05-16T10:02:09;1.50;;;0.90;;
4373;SDS011;2201;51.100;6.814;2023-05-16T10:04:40;1.47;;;0.90;;
4373;SDS011;2201;51.100;6.814;2023-05-16T10:07:08;1.47;;;0.90;;
4373;SDS011;2201;51.100;6.814;2023-05-16T10:09:38;1.50;;;0.90;;
4373;SDS011;2201;51.100;6.814;2023-05-16T10:12:09;1.50;;;0.90;;
4373;SDS011;2201;51.100;6.814;2023-05-16T10:14:44;1.47;;;0.90;;
4373;SDS011;2201;51.100;6.814;2023-05-16T10:17:14;1.50;;;0.90;;
4373;SDS011;2201;51.100;6.814;2023-05-16T10:19:43;1.43;;;0.90;;
4373;SDS011;2201;51.100;6.814;2023-05-16T10:22:17;1.50;;;0.90;;
4373;SDS011;2201;51.100;6.814;2023-05-16T10:24:49;1.43;;;0.90;;
4373;SDS011;2201;51.100;6.814;2023-05-16T10:27:30;1.43;;;0.90;;
4373;SDS011;2201;51.100;6.814;2023-05-16T10:30:04;1.70;;;1.30;;
4373;SDS011;2201;51.100;6.814;2023-05-16T10:32:32;1.47;;;0.90;;
4373;SDS011;2201;51.100;6.814;2023-05-16T10:35:08;1.43;;;0.90;;
4373;SDS011;2201;51.100;6.814;2023-05-16T10:37:42;1.50;;;0.90;;
4373;SDS011;2201;51.100;6.814;2023-05-16T10:40:40;1.47;;;0.90;;
4373;SDS011;2201;51.100;6.814;2023-05-16T10:43:08;1.50;;;0.90;;
4373;SDS011;2201;51.100;6.814;2023-05-16T10:45:54;1.50;;;1.00;;
4373;SDS011;2201;51.100;6.814;2023-05-16T10:48:31;1.47;;;0.90;;
4373;SDS011;2201;51.100;6.814;2023-05-16T10:51:02;1.50;;;0.90;;
4373;SDS011;2201;51.100;6.814;2023-05-16T10:53:50;1.43;;;0.90;;
4373;SDS011;2201;51.100;6.814;2023-05-16T10:56:27;1.50;;;0.90;;
4373;SDS011;2201;51.100;6.814;2023-05-16T10:59:01;1.50;;;0.90;;
4373;SDS011;2201;51.100;6.814;2023-05-16T11:02:30;1.47;;;0.90;;
4373;SDS011;2201;51.100;6.814;2023-05-16T11:04:51;1.47;;;0.90;;
4373;SDS011;2201;51.100;6.814;2023-05-16T11:07:25;1.47;;;0.90;;
4373;SDS011;2201;51.100;6.814;2023-05-16T11:10:05;1.47;;;0.90;;
4373;SDS011;2201;51.100;6.814;2023-05-16T11:12:43;1.50;;;0.90;;
4373;SDS011;2201;51.100;6.814;2023-05-16T11:15:27;1.47;;;0.90;;
4373;SDS011;2201;51.100;6.814;2023-05-16T11:18:08;1.47;;;0.90;;
4373;SDS011;2201;51.100;6.814;2023-05-16T11:20:43;1.43;;;0.90;;
4373;SDS011;2201;51.100;6.814;2023-05-16T11:23:23;1.50;;;0.93;;
4373;SDS011;2201;51.100;6.814;2023-05-16T11:25:52;1.50;;;0.90;;
4373;SDS011;2201;51.100;6.814;2023-05-16T11:28:21;1.50;;;0.90;;
4373;SDS011;2201;51.100;6.814;2023-05-16T11:30:53;1.43;;;0.90;;
4373;SDS011;2201;51.100;6.814;2023-05-16T11:33:23;1.50;;;0.90;;
4373;SDS011;2201;51.100;6.814;2023-05-16T11:36:02;1.47;;;0.93;;
4373;SDS011;2201;51.100;6.814;2023-05-16T11:38:33;1.97;;;1.77;;
4373;SDS011;2201;51.100;6.814;2023-05-16T11:41:04;1.50;;;1.00;;
4373;SDS011;2201;51.100;6.814;2023-05-16T11:43:36;1.70;;;1.10;;
4373;SDS011;2201;51.100;6.814;2023-05-16T11:46:10;1.40;;;0.90;;
4373;SDS011;2201;51.100;6.814;2023-05-16T11:48:39;1.43;;;0.87;;
4373;SDS011;2201;51.100;6.814;2023-05-16T11:51:10;1.50;;;0.90;;
4373;SDS011;2201;51.100;6.814;2023-05-16T11:53:40;1.50;;;0.90;;
4373;SDS011;2201;51.100;6.814;2023-05-16T11:56:08;1.43;;;0.90;;
4373;SDS011;2201;51.100;6.814;2023-05-16T11:58:36;1.47;;;0.90;;
4373;SDS011;2201;51.100;6.814;2023-05-16T12:01:04;1.50;;;0.90;;
4373;SDS011;2201;51.100;6.814;2023-05-16T12:03:32;1.50;;;0.90;;
4373;SDS011;2201;51.100;6.814;2023-05-16T12:06:05;1.43;;;0.90;;
4373;SDS011;2201;51.100;6.814;2023-05-16T12:08:37;1.50;;;0.90;;
4373;SDS011;2201;51.100;6.814;2023-05-16T12:11:06;1.43;;;0.90;;
4373;SDS011;2201;51.100;6.814;2023-05-16T12:13:38;1.50;;;1.10;;
4373;SDS011;2201;51.100;6.814;2023-05-16T12:16:08;1.43;;;0.90;;
4373;SDS011;2201;51.100;6.814;2023-05-16T12:18:39;1.50;;;0.80;;
4373;SDS011;2201;51.100;6.814;2023-05-16T12:21:07;1.50;;;0.90;;
4373;SDS011;2201;51.100;6.814;2023-05-16T12:23:36;1.43;;;0.90;;
4373;SDS011;2201;51.100;6.814;2023-05-16T12:26:05;1.47;;;0.90;;
4373;SDS011;2201;51.100;6.814;2023-05-16T12:28:39;1.43;;;0.90;;
4373;SDS011;2201;51.100;6.814;2023-05-16T12:31:17;1.47;;;0.90;;
4373;SDS011;2201;51.100;6.814;2023-05-16T12:33:45;1.43;;;0.90;;
4373;SDS011;2201;51.100;6.814;2023-05-16T12:36:14;1.50;;;0.90;;
4373;SDS011;2201;51.100;6.814;2023-05-16T12:38:45;1.43;;;0.90;;
4373;SDS011;2201;51.100;6.814;2023-05-16T12:41:17;1.47;;;0.90;;
4373;SDS011;2201;51.100;6.814;2023-05-16T12:43:45;1.40;;;0.90;;
4373;SDS011;2201;51.100;6.814;2023-05-16T12:46:18;1.43;;;0.90;;
4373;SDS011;2201;51.100;6.814;2023-05-16T12:48:57;1.43;;;0.90;;
4373;SDS011;2201;51.100;6.814;2023-05-16T12:51:32;1.50;;;0.90;;
4373;SDS011;2201;51.100;6.814;2023-05-16T12:54:17;1.47;;;0.90;;
4373;SDS011;2201;51.100;6.814;2023-05-16T12:56:48;1.50;;;0.90;;
4373;SDS011;2201;51.100;6.814;2023-05-16T12:59:18;1.47;;;0.90;;
4373;SDS011;2201;51.100;6.814;2023-05-16T13:01:49;1.43;;;0.90;;
4373;SDS011;2201;51.100;6.814;2023-05-16T13:04:19;1.47;;;0.90;;
4373;SDS011;2201;51.100;6.814;2023-05-16T13:06:47;1.50;;;0.90;;
4373;SDS011;2201;51.100;6.814;2023-05-16T13:09:34;1.50;;;0.90;;
4373;SDS011;2201;51.100;6.814;2023-05-16T13:12:05;1.47;;;0.90;;
4373;SDS011;2201;51.100;6.814;2023-05-16T13:14:35;1.43;;;0.83;;
4373;SDS011;2201;51.100;6.814;2023-05-16T13:17:06;1.47;;;0.87;;
4373;SDS011;2201;51.100;6.814;2023-05-16T13:19:33;1.47;;;0.90;;
4373;SDS011;2201;51.100;6.814;2023-05-16T13:22:00;1.43;;;0.90;;
4373;SDS011;2201;51.100;6.814;2023-05-16T13:24:35;1.50;;;0.90;;
4373;SDS011;2201;51.100;6.814;2023-05-16T13:27:07;1.43;;;0.80;;
4373;SDS011;2201;51.100;6.814;2023-05-16T13:29:58;1.47;;;0.90;;
4373;SDS011;2201;51.100;6.814;2023-05-16T13:32:28;1.47;;;0.90;;
4373;SDS011;2201;51.100;6.814;2023-05-16T13:35:06;1.43;;;0.90;;
4373;SDS011;2201;51.100;6.814;2023-05-16T13:37:53;1.50;;;0.90;;
4373;SDS011;2201;51.100;6.814;2023-05-16T13:40:30;1.47;;;0.90;;
4373;SDS011;2201;51.100;6.814;2023-05-16T13:45:49;1.43;;;0.90;;
4373;SDS011;2201;51.100;6.814;2023-05-16T13:48:17;1.47;;;0.90;;
4373;SDS011;2201;51.100;6.814;2023-05-16T13:50:44;1.43;;;0.90;;
4373;SDS011;2201;51.100;6.814;2023-05-16T13:53:14;1.50;;;0.80;;
4373;SDS011;2201;51.100;6.814;2023-05-16T13:55:41;1.47;;;0.90;;
4373;SDS011;2201;51.100;6.814;2023-05-16T13:58:09;1.47;;;0.90;;
4373;SDS011;2201;51.100;6.814;2023-05-16T14:00:39;1.40;;;0.90;;
4373;SDS011;2201;51.100;6.814;2023-05-16T14:03:11;1.40;;;0.87;;
4373;SDS011;2201;51.100;6.814;2023-05-16T14:05:41;1.47;;;0.90;;
4373;SDS011;2201;51.100;6.814;2023-05-16T14:08:08;1.43;;;0.90;;
4373;SDS011;2201;51.100;6.814;2023-05-16T14:10:36;1.47;;;0.90;;
4373;SDS011;2201;51.100;6.814;2023-05-16T14:13:04;1.40;;;0.90;;
4373;SDS011;2201;51.100;6.814;2023-05-16T14:15:40;1.40;;;0.90;;
4373;SDS011;2201;51.100;6.814;2023-05-16T14:18:07;1.47;;;0.90;;
4373;SDS011;2201;51.100;6.814;2023-05-16T14:20:39;1.47;;;0.90;;
4373;SDS011;2201;51.100;6.814;2023-05-16T14:23:09;1.43;;;0.87;;
4373;SDS011;2201;51.100;6.814;2023-05-16T14:25:51;1.47;;;0.90;;
4373;SDS011;2201;51.100;6.814;2023-05-16T14:28:18;1.73;;;1.23;;
4373;SDS011;2201;51.100;6.814;2023-05-16T14:30:56;1.50;;;0.90;;
4373;SDS011;2201;51.100;6.814;2023-05-16T14:33:23;1.50;;;0.90;;
4373;SDS011;2201;51.100;6.814;2023-05-16T14:35:59;1.47;;;0.90;;
4373;SDS011;2201;51.100;6.814;2023-05-16T14:38:40;1.47;;;0.90;;
4373;SDS011;2201;51.100;6.814;2023-05-16T14:41:10;1.47;;;0.90;;
4373;SDS011;2201;51.100;6.814;2023-05-16T14:43:40;1.47;;;0.90;;
4373;SDS011;2201;51.100;6.814;2023-05-16T14:46:17;1.50;;;0.90;;
4373;SDS011;2201;51.100;6.814;2023-05-16T14:48:48;1.50;;;0.90;;
4373;SDS011;2201;51.100;6.814;2023-05-16T14:51:19;1.50;;;0.90;;
4373;SDS011;2201;51.100;6.814;2023-05-16T14:53:59;1.40;;;0.90;;
4373;SDS011;2201;51.100;6.814;2023-05-16T14:56:49;1.47;;;0.90;;
4373;SDS011;2201;51.100;6.814;2023-05-16T14:59:18;1.47;;;0.90;;
4373;SDS011;2201;51.100;6.814;2023-05-16T15:01:58;1.50;;;0.90;;
4373;SDS011;2201;51.100;6.814;2023-05-16T15:04:32;1.50;;;1.00;;
4373;SDS011;2201;51.100;6.814;2023-05-16T15:07:06;1.43;;;0.90;;
4373;SDS011;2201;51.100;6.814;2023-05-16T15:09:38;1.47;;;0.90;;
4373;SDS011;2201;51.100;6.814;2023-05-16T15:12:13;1.47;;;0.90;;
4373;SDS011;2201;51.100;6.814;2023-05-16T15:14:51;1.47;;;0.90;;
4373;SDS011;2201;51.100;6.814;2023-05-16T15:17:19;1.47;;;0.90;;
4373;SDS011;2201;51.100;6.814;2023-05-16T15:19:50;1.47;;;0.90;;
4373;SDS011;2201;51.100;6.814;2023-05-16T15:22:27;1.43;;;0.90;;
4373;SDS011;2201;51.100;6.814;2023-05-16T15:25:11;1.50;;;0.90;;
4373;SDS011;2201;51.100;6.814;2023-05-16T15:27:41;1.47;;;0.90;;
4373;SDS011;2201;51.100;6.814;2023-05-16T15:30:09;1.47;;;0.90;;
4373;SDS011;2201;51.100;6.814;2023-05-16T15:32:38;1.43;;;0.90;;
4373;SDS011;2201;51.100;6.814;2023-05-16T15:35:07;1.47;;;0.90;;
4373;SDS011;2201;51.100;6.814;2023-05-16T15:37:37;1.47;;;0.90;;
4373;SDS011;2201;51.100;6.814;2023-05-16T15:40:06;1.43;;;0.90;;
4373;SDS011;2201;51.100;6.814;2023-05-16T15:42:35;1.50;;;0.90;;
4373;SDS011;2201;51.100;6.814;2023-05-16T15:45:16;1.43;;;0.90;;
4373;SDS011;2201;51.100;6.814;2023-05-16T15:47:45;1.43;;;0.90;;
4373;SDS011;2201;51.100;6.814;2023-05-16T15:50:12;1.43;;;0.90;;
4373;SDS011;2201;51.100;6.814;2023-05-16T15:55:42;1.47;;;0.90;;
4373;SDS011;2201;51.100;6.814;2023-05-16T15:58:09;1.50;;;0.90;;
4373;SDS011;2201;51.100;6.814;2023-05-16T16:00:37;1.50;;;0.90;;
4373;SDS011;2201;51.100;6.814;2023-05-16T16:03:08;1.43;;;0.90;;
4373;SDS011;2201;51.100;6.814;2023-05-16T16:05:35;1.40;;;0.90;;
4373;SDS011;2201;51.100;6.814;2023-05-16T16:08:03;1.47;;;0.90;;